createdAt,value
2017-08-02T00:00:57.769Z,974.57
2017-08-02T00:01:58.484Z,974.53
2017-08-02T00:02:59.440Z,974.55
2017-08-02T00:04:00.145Z,974.57
2017-08-02T00:05:00.853Z,974.55
2017-08-02T00:06:01.557Z,974.43
2017-08-02T00:07:02.258Z,974.37
2017-08-02T00:08:03.258Z,974.28
2017-08-02T00:09:03.962Z,974.18
2017-08-02T00:10:04.668Z,974.11
2017-08-02T00:11:05.372Z,974.02
2017-08-02T00:12:06.074Z,973.99
2017-08-02T00:13:07.028Z,973.89
2017-08-02T00:14:07.736Z,973.85
2017-08-02T00:15:08.440Z,973.84
2017-08-02T00:16:09.168Z,973.84
2017-08-02T00:17:09.876Z,973.83
2017-08-02T00:18:10.829Z,973.84
2017-08-02T00:19:11.530Z,973.83
2017-08-02T00:20:12.232Z,973.87
2017-08-02T00:21:12.943Z,973.86
2017-08-02T00:22:13.644Z,973.93
2017-08-02T00:23:14.593Z,973.93
2017-08-02T00:24:15.292Z,973.94
2017-08-02T00:25:16.001Z,973.98
2017-08-02T00:26:16.716Z,974.01
2017-08-02T00:27:17.418Z,974.02
2017-08-02T00:28:18.370Z,974.01
2017-08-02T00:29:19.081Z,973.96
2017-08-02T00:30:19.783Z,973.89
2017-08-02T00:31:20.481Z,973.90
2017-08-02T00:32:21.185Z,973.85
2017-08-02T00:33:22.187Z,973.81
2017-08-02T00:34:22.890Z,973.74
2017-08-02T00:35:23.602Z,973.71
2017-08-02T00:36:24.303Z,973.55
2017-08-02T00:37:25.010Z,973.53
2017-08-02T00:38:25.965Z,973.46
2017-08-02T00:39:26.666Z,973.44
2017-08-02T00:40:27.370Z,973.37
2017-08-02T00:41:28.074Z,973.25
2017-08-02T00:42:28.782Z,973.10
2017-08-02T00:43:29.744Z,973.03
2017-08-02T00:44:30.450Z,972.93
2017-08-02T00:45:31.156Z,972.97
2017-08-02T00:46:31.860Z,972.90
2017-08-02T00:47:32.561Z,972.78
2017-08-02T00:48:33.516Z,972.79
2017-08-02T00:49:34.227Z,972.95
2017-08-02T00:50:34.930Z,973.13
2017-08-02T00:51:35.633Z,973.30
2017-08-02T00:52:36.337Z,973.34
2017-08-02T00:53:37.294Z,973.37
2017-08-02T00:54:37.996Z,973.38
2017-08-02T00:55:38.703Z,973.35
2017-08-02T00:56:39.404Z,973.35
2017-08-02T00:57:40.114Z,973.39
2017-08-02T00:58:41.064Z,973.45
2017-08-02T00:59:41.763Z,973.39
2017-08-02T01:00:42.461Z,973.42
2017-08-02T01:01:43.161Z,973.39
2017-08-02T01:02:43.862Z,973.32
2017-08-02T01:03:44.818Z,973.28
2017-08-02T01:04:45.523Z,973.34
2017-08-02T01:05:46.226Z,973.34
2017-08-02T01:06:46.927Z,973.45
2017-08-02T01:07:47.637Z,973.56
2017-08-02T01:08:48.587Z,973.68
2017-08-02T01:09:49.293Z,973.82
2017-08-02T01:10:49.995Z,974.05
2017-08-02T01:11:50.704Z,974.27
2017-08-02T01:12:51.410Z,974.41
2017-08-02T01:13:52.361Z,974.57
2017-08-02T01:14:53.063Z,974.72
2017-08-02T01:15:53.769Z,974.70
2017-08-02T01:16:54.475Z,974.73
2017-08-02T01:17:55.182Z,974.66
2017-08-02T01:18:56.141Z,974.57
2017-08-02T01:19:56.844Z,974.47
2017-08-02T01:20:57.547Z,974.39
2017-08-02T01:21:58.248Z,974.50
2017-08-02T01:22:58.953Z,974.63
2017-08-02T01:23:59.904Z,974.66
2017-08-02T01:25:00.604Z,974.67
2017-08-02T01:26:01.313Z,974.58
2017-08-02T01:27:02.014Z,974.51
2017-08-02T01:28:02.719Z,974.61
2017-08-02T01:29:03.671Z,974.66
2017-08-02T01:30:04.374Z,974.77
2017-08-02T01:31:05.077Z,974.75
2017-08-02T01:32:05.784Z,974.84
2017-08-02T01:33:06.486Z,974.80
2017-08-02T01:34:07.438Z,974.78
2017-08-02T01:35:08.138Z,974.82
2017-08-02T01:36:08.842Z,974.88
2017-08-02T01:37:09.543Z,974.95
2017-08-02T01:38:10.244Z,974.95
2017-08-02T01:39:11.201Z,975.01
2017-08-02T01:40:11.920Z,975.04
2017-08-02T01:41:12.625Z,975.14
2017-08-02T01:42:13.326Z,975.14
2017-08-02T01:43:14.031Z,975.17
2017-08-02T01:44:14.985Z,975.21
2017-08-02T01:45:15.699Z,975.23
2017-08-02T01:46:16.401Z,975.24
2017-08-02T01:47:17.102Z,975.22
2017-08-02T01:48:17.804Z,975.28
2017-08-02T01:49:18.755Z,975.20
2017-08-02T01:50:19.461Z,975.17
2017-08-02T01:51:20.160Z,975.16
2017-08-02T01:52:20.861Z,975.15
2017-08-02T01:53:21.563Z,975.19
2017-08-02T01:54:22.517Z,975.23
2017-08-02T01:55:23.220Z,975.30
2017-08-02T01:56:23.925Z,975.39
2017-08-02T01:57:24.631Z,975.41
2017-08-02T01:58:25.332Z,975.49
2017-08-02T01:59:26.285Z,975.39
2017-08-02T02:00:26.992Z,975.30
2017-08-02T02:01:27.694Z,975.27
2017-08-02T02:02:28.411Z,975.26
2017-08-02T02:03:29.112Z,975.22
2017-08-02T02:04:30.066Z,975.14
2017-08-02T02:05:30.767Z,975.11
2017-08-02T02:06:31.473Z,975.09
2017-08-02T02:07:32.175Z,975.12
2017-08-02T02:08:32.876Z,975.14
2017-08-02T02:09:33.833Z,975.21
2017-08-02T02:10:34.539Z,975.21
2017-08-02T02:11:35.250Z,975.20
2017-08-02T02:12:35.952Z,975.19
2017-08-02T02:13:36.655Z,975.15
2017-08-02T02:14:37.608Z,975.15
2017-08-02T02:15:38.310Z,975.09
2017-08-02T02:16:39.020Z,975.11
2017-08-02T02:17:39.743Z,975.07
2017-08-02T02:18:40.443Z,975.12
2017-08-02T02:19:41.392Z,975.09
2017-08-02T02:20:42.095Z,975.11
2017-08-02T02:21:42.799Z,975.07
2017-08-02T02:22:43.501Z,975.08
2017-08-02T02:23:44.204Z,975.08
2017-08-02T02:24:45.160Z,975.13
2017-08-02T02:25:45.865Z,975.14
2017-08-02T02:26:46.568Z,975.12
2017-08-02T02:27:47.272Z,975.15
2017-08-02T02:28:47.980Z,975.11
2017-08-02T02:29:48.933Z,974.98
2017-08-02T02:30:49.636Z,974.85
2017-08-02T02:31:50.337Z,974.83
2017-08-02T02:32:51.041Z,974.76
2017-08-02T02:33:51.742Z,974.70
2017-08-02T02:34:52.690Z,974.57
2017-08-02T02:35:53.392Z,974.37
2017-08-02T02:36:54.098Z,974.25
2017-08-02T02:37:54.807Z,974.16
2017-08-02T02:38:55.508Z,974.13
2017-08-02T02:39:56.212Z,974.15
2017-08-02T02:40:56.920Z,974.09
2017-08-02T02:41:57.623Z,973.98
2017-08-02T02:42:58.324Z,973.99
2017-08-02T02:43:59.039Z,974.01
2017-08-02T02:45:00.010Z,974.03
2017-08-02T02:46:00.710Z,974.00
2017-08-02T02:47:01.414Z,973.90
2017-08-02T02:48:02.119Z,973.77
2017-08-02T02:49:02.826Z,973.78
2017-08-02T02:50:03.782Z,973.80
2017-08-02T02:51:04.483Z,973.87
2017-08-02T02:52:05.188Z,973.86
2017-08-02T02:53:05.893Z,973.93
2017-08-02T02:54:06.594Z,973.86
2017-08-02T02:55:07.546Z,973.77
2017-08-02T02:56:08.271Z,973.62
2017-08-02T02:57:08.970Z,973.46
2017-08-02T02:58:09.674Z,973.46
2017-08-02T02:59:10.378Z,973.48
2017-08-02T03:00:11.336Z,973.46
2017-08-02T03:01:12.044Z,973.42
2017-08-02T03:02:12.750Z,973.48
2017-08-02T03:03:13.452Z,973.52
2017-08-02T03:04:14.168Z,973.37
2017-08-02T03:05:15.126Z,973.34
2017-08-02T03:06:15.830Z,973.34
2017-08-02T03:07:16.532Z,973.40
2017-08-02T03:08:17.238Z,973.41
2017-08-02T03:09:17.955Z,973.56
2017-08-02T03:10:18.906Z,973.61
2017-08-02T03:11:19.621Z,973.61
2017-08-02T03:12:20.327Z,973.65
2017-08-02T03:13:21.030Z,973.76
2017-08-02T03:14:21.741Z,973.79
2017-08-02T03:15:22.699Z,973.79
2017-08-02T03:16:23.406Z,973.74
2017-08-02T03:17:24.108Z,973.70
2017-08-02T03:18:24.812Z,973.67
2017-08-02T03:19:25.521Z,973.69
2017-08-02T03:20:26.473Z,973.68
2017-08-02T03:21:27.178Z,973.65
2017-08-02T03:22:27.879Z,973.68
2017-08-02T03:23:28.583Z,973.62
2017-08-02T03:24:29.287Z,973.56
2017-08-02T03:25:30.236Z,973.57
2017-08-02T03:26:30.936Z,973.46
2017-08-02T03:27:31.637Z,973.47
2017-08-02T03:28:32.340Z,973.53
2017-08-02T03:29:33.045Z,973.57
2017-08-02T03:30:34.002Z,973.63
2017-08-02T03:31:34.707Z,973.64
2017-08-02T03:32:35.409Z,973.66
2017-08-02T03:33:36.114Z,973.61
2017-08-02T03:34:36.818Z,973.66
2017-08-02T03:35:37.772Z,973.70
2017-08-02T03:36:38.477Z,973.68
2017-08-02T03:37:39.190Z,973.71
2017-08-02T03:38:39.905Z,973.78
2017-08-02T03:39:40.611Z,973.82
2017-08-02T03:40:41.566Z,973.84
2017-08-02T03:41:42.268Z,973.76
2017-08-02T03:42:42.976Z,973.73
2017-08-02T03:43:43.682Z,973.74
2017-08-02T03:44:44.389Z,973.77
2017-08-02T03:45:45.343Z,973.76
2017-08-02T03:46:46.046Z,973.81
2017-08-02T03:47:46.749Z,973.86
2017-08-02T03:48:47.451Z,973.89
2017-08-02T03:49:48.154Z,973.90
2017-08-02T03:50:49.105Z,973.95
2017-08-02T03:51:49.807Z,973.98
2017-08-02T03:52:50.516Z,974.03
2017-08-02T03:53:51.219Z,974.02
2017-08-02T03:54:51.921Z,974.02
2017-08-02T03:55:52.879Z,974.04
2017-08-02T03:56:53.584Z,974.02
2017-08-02T03:57:54.289Z,974.01
2017-08-02T03:58:55.000Z,973.99
2017-08-02T03:59:55.702Z,974.04
2017-08-02T04:00:56.654Z,973.97
2017-08-02T04:01:57.355Z,973.98
2017-08-02T04:02:58.064Z,974.01
2017-08-02T04:03:58.769Z,974.01
2017-08-02T04:04:59.481Z,974.01
2017-08-02T04:06:00.433Z,974.03
2017-08-02T04:07:01.131Z,974.07
2017-08-02T04:08:01.831Z,974.11
2017-08-02T04:09:02.533Z,974.12
2017-08-02T04:10:03.236Z,974.13
2017-08-02T04:11:04.192Z,974.15
2017-08-02T04:12:04.902Z,974.15
2017-08-02T04:13:05.605Z,974.18
2017-08-02T04:14:06.311Z,974.19
2017-08-02T04:15:07.016Z,974.16
2017-08-02T04:16:07.967Z,974.15
2017-08-02T04:17:08.669Z,974.15
2017-08-02T04:18:09.372Z,974.14
2017-08-02T04:19:10.074Z,974.19
2017-08-02T04:20:10.783Z,974.20
2017-08-02T04:21:11.736Z,974.19
2017-08-02T04:22:12.442Z,974.16
2017-08-02T04:23:13.148Z,974.15
2017-08-02T04:24:13.854Z,974.16
2017-08-02T04:25:14.565Z,974.18
2017-08-02T04:26:15.524Z,974.21
2017-08-02T04:27:16.233Z,974.24
2017-08-02T04:28:16.945Z,974.23
2017-08-02T04:29:17.649Z,974.30
2017-08-02T04:30:18.351Z,974.29
2017-08-02T04:31:19.308Z,974.29
2017-08-02T04:32:20.021Z,974.28
2017-08-02T04:33:20.727Z,974.26
2017-08-02T04:34:21.432Z,974.25
2017-08-02T04:35:22.135Z,974.27
2017-08-02T04:36:23.089Z,974.29
2017-08-02T04:37:23.799Z,974.30
2017-08-02T04:38:24.506Z,974.32
2017-08-02T04:39:25.213Z,974.27
2017-08-02T04:40:25.913Z,974.32
2017-08-02T04:41:26.866Z,974.32
2017-08-02T04:42:27.571Z,974.39
2017-08-02T04:43:28.277Z,974.35
2017-08-02T04:44:28.984Z,974.33
2017-08-02T04:45:29.694Z,974.37
2017-08-02T04:46:30.654Z,974.38
2017-08-02T04:47:31.363Z,974.36
2017-08-02T04:48:32.069Z,974.33
2017-08-02T04:49:32.776Z,974.33
2017-08-02T04:50:33.482Z,974.31
2017-08-02T04:51:34.444Z,974.33
2017-08-02T04:52:35.146Z,974.39
2017-08-02T04:53:35.851Z,974.43
2017-08-02T04:54:36.552Z,974.48
2017-08-02T04:55:37.256Z,974.50
2017-08-02T04:56:38.214Z,974.52
2017-08-02T04:57:38.920Z,974.56
2017-08-02T04:58:39.628Z,974.52
2017-08-02T04:59:40.333Z,974.56
2017-08-02T05:00:41.041Z,974.52
2017-08-02T05:01:42.019Z,974.53
2017-08-02T05:02:42.732Z,974.54
2017-08-02T05:03:43.442Z,974.54
2017-08-02T05:04:44.149Z,974.55
2017-08-02T05:05:44.850Z,974.57
2017-08-02T05:06:45.804Z,974.57
2017-08-02T05:07:46.510Z,974.57
2017-08-02T05:08:47.226Z,974.58
2017-08-02T05:09:47.951Z,974.60
2017-08-02T05:10:48.661Z,974.61
2017-08-02T05:11:49.619Z,974.61
2017-08-02T05:12:50.329Z,974.67
2017-08-02T05:13:51.036Z,974.66
2017-08-02T05:14:51.751Z,974.68
2017-08-02T05:15:52.459Z,974.72
2017-08-02T05:16:53.415Z,974.72
2017-08-02T05:17:54.128Z,974.73
2017-08-02T05:18:54.837Z,974.76
2017-08-02T05:19:55.542Z,974.74
2017-08-02T05:20:56.250Z,974.76
2017-08-02T05:21:57.213Z,974.76
2017-08-02T05:22:57.922Z,974.76
2017-08-02T05:23:58.626Z,974.81
2017-08-02T05:24:59.331Z,974.84
2017-08-02T05:26:00.040Z,974.85
2017-08-02T05:27:00.994Z,974.86
2017-08-02T05:28:01.704Z,974.89
2017-08-02T05:29:02.407Z,974.93
2017-08-02T05:30:03.112Z,974.97
2017-08-02T05:31:03.821Z,975.00
2017-08-02T05:32:04.830Z,974.97
2017-08-02T05:33:05.538Z,975.01
2017-08-02T05:34:06.245Z,974.95
2017-08-02T05:35:06.951Z,974.97
2017-08-02T05:36:07.655Z,974.98
2017-08-02T05:37:08.617Z,974.96
2017-08-02T05:38:09.320Z,974.96
2017-08-02T05:39:10.026Z,974.96
2017-08-02T05:40:10.746Z,974.95
2017-08-02T05:41:11.450Z,974.97
2017-08-02T05:42:12.403Z,974.95
2017-08-02T05:43:13.110Z,974.94
2017-08-02T05:44:13.812Z,974.96
2017-08-02T05:45:14.518Z,974.94
2017-08-02T05:46:15.226Z,974.92
2017-08-02T05:47:16.192Z,974.94
2017-08-02T05:48:16.904Z,974.95
2017-08-02T05:49:17.612Z,974.99
2017-08-02T05:50:18.326Z,974.96
2017-08-02T05:51:19.030Z,974.93
2017-08-02T05:52:19.995Z,974.89
2017-08-02T05:53:20.702Z,974.95
2017-08-02T05:54:21.410Z,974.88
2017-08-02T05:55:22.112Z,974.94
2017-08-02T05:56:22.818Z,974.88
2017-08-02T05:57:23.528Z,974.90
2017-08-02T05:58:24.240Z,974.85
2017-08-02T05:59:24.954Z,974.80
2017-08-02T06:00:25.662Z,974.86
2017-08-02T06:01:26.363Z,974.80
2017-08-02T06:02:27.322Z,974.82
2017-08-02T06:03:28.037Z,974.86
2017-08-02T06:04:28.756Z,974.89
2017-08-02T06:05:29.465Z,974.90
2017-08-02T06:06:30.175Z,974.93
2017-08-02T06:07:31.132Z,974.92
2017-08-02T06:08:31.837Z,974.93
2017-08-02T06:09:32.543Z,974.98
2017-08-02T06:10:33.253Z,975.00
2017-08-02T06:11:33.962Z,975.00
2017-08-02T06:12:34.917Z,975.02
2017-08-02T06:13:35.624Z,974.98
2017-08-02T06:14:36.331Z,974.98
2017-08-02T06:15:37.048Z,974.91
2017-08-02T06:16:37.754Z,974.95
2017-08-02T06:17:38.714Z,974.92
2017-08-02T06:18:39.420Z,974.88
2017-08-02T06:19:40.128Z,974.86
2017-08-02T06:20:40.841Z,974.92
2017-08-02T06:21:41.548Z,974.95
2017-08-02T06:22:42.506Z,974.93
2017-08-02T06:23:43.217Z,974.97
2017-08-02T06:24:43.936Z,975.04
2017-08-02T06:25:44.646Z,975.06
2017-08-02T06:26:45.353Z,975.07
2017-08-02T06:27:46.313Z,975.07
2017-08-02T06:28:47.020Z,975.11
2017-08-02T06:29:47.724Z,975.11
2017-08-02T06:30:48.428Z,975.08
2017-08-02T06:31:49.135Z,975.12
2017-08-02T06:32:50.095Z,975.14
2017-08-02T06:33:50.799Z,975.11
2017-08-02T06:34:51.517Z,975.13
2017-08-02T06:35:52.231Z,975.15
2017-08-02T06:36:52.940Z,975.18
2017-08-02T06:37:53.910Z,975.21
2017-08-02T06:38:54.624Z,975.17
2017-08-02T06:39:55.331Z,975.18
2017-08-02T06:40:56.037Z,975.24
2017-08-02T06:41:56.745Z,975.25
2017-08-02T06:42:57.714Z,975.28
2017-08-02T06:43:58.424Z,975.22
2017-08-02T06:44:59.130Z,975.26
2017-08-02T06:45:59.839Z,975.25
2017-08-02T06:47:00.549Z,975.26
2017-08-02T06:48:01.511Z,975.24
2017-08-02T06:49:02.223Z,975.29
2017-08-02T06:50:02.930Z,975.31
2017-08-02T06:51:03.646Z,975.31
2017-08-02T06:52:04.368Z,975.33
2017-08-02T06:53:05.332Z,975.32
2017-08-02T06:54:06.052Z,975.31
2017-08-02T06:55:06.760Z,975.36
2017-08-02T06:56:07.476Z,975.34
2017-08-02T06:57:08.183Z,975.31
2017-08-02T06:58:09.139Z,975.34
2017-08-02T06:59:09.846Z,975.38
2017-08-02T07:00:10.553Z,975.35
2017-08-02T07:01:11.259Z,975.37
2017-08-02T07:02:11.969Z,975.35
2017-08-02T07:03:12.924Z,975.38
2017-08-02T07:04:13.630Z,975.36
2017-08-02T07:05:14.339Z,975.35
2017-08-02T07:06:15.048Z,975.37
2017-08-02T07:07:15.757Z,975.38
2017-08-02T07:08:16.722Z,975.42
2017-08-02T07:09:17.428Z,975.41
2017-08-02T07:10:18.134Z,975.36
2017-08-02T07:11:18.854Z,975.37
2017-08-02T07:12:19.563Z,975.38
2017-08-02T07:13:20.279Z,975.40
2017-08-02T07:14:20.991Z,975.41
2017-08-02T07:15:21.712Z,975.41
2017-08-02T07:16:22.422Z,975.47
2017-08-02T07:17:23.128Z,975.42
2017-08-02T07:18:23.997Z,975.44
2017-08-02T07:19:24.713Z,975.41
2017-08-02T07:20:25.421Z,975.37
2017-08-02T07:21:26.126Z,975.41
2017-08-02T07:22:26.836Z,975.38
2017-08-02T07:23:27.796Z,975.45
2017-08-02T07:24:28.510Z,975.50
2017-08-02T07:25:29.234Z,975.52
2017-08-02T07:26:29.944Z,975.50
2017-08-02T07:27:30.653Z,975.53
2017-08-02T07:28:31.619Z,975.56
2017-08-02T07:29:32.327Z,975.55
2017-08-02T07:30:33.032Z,975.58
2017-08-02T07:31:33.751Z,975.60
2017-08-02T07:32:34.462Z,975.61
2017-08-02T07:33:35.476Z,975.61
2017-08-02T07:34:36.188Z,975.62
2017-08-02T07:35:36.898Z,975.61
2017-08-02T07:36:37.605Z,975.67
2017-08-02T07:37:38.316Z,975.67
2017-08-02T07:38:39.274Z,975.63
2017-08-02T07:39:39.986Z,975.64
2017-08-02T07:40:40.691Z,975.65
2017-08-02T07:41:41.394Z,975.63
2017-08-02T07:42:42.102Z,975.65
2017-08-02T07:43:43.058Z,975.61
2017-08-02T07:44:43.775Z,975.64
2017-08-02T07:45:44.480Z,975.69
2017-08-02T07:46:45.182Z,975.72
2017-08-02T07:47:45.892Z,975.76
2017-08-02T07:48:46.851Z,975.78
2017-08-02T07:49:47.558Z,975.76
2017-08-02T07:50:48.276Z,975.75
2017-08-02T07:51:48.982Z,975.75
2017-08-02T07:52:49.692Z,975.78
2017-08-02T07:53:50.653Z,975.73
2017-08-02T07:54:51.360Z,975.75
2017-08-02T07:55:52.069Z,975.73
2017-08-02T07:56:52.779Z,975.78
2017-08-02T07:57:53.487Z,975.72
2017-08-02T07:58:54.444Z,975.78
2017-08-02T07:59:55.160Z,975.76
2017-08-02T08:00:55.875Z,975.72
2017-08-02T08:01:56.587Z,975.72
2017-08-02T08:02:57.294Z,975.69
2017-08-02T08:03:58.311Z,975.65
2017-08-02T08:04:59.023Z,975.64
2017-08-02T08:05:59.729Z,975.64
2017-08-02T08:07:00.440Z,975.66
2017-08-02T08:08:01.149Z,975.64
2017-08-02T08:09:02.112Z,975.60
2017-08-02T08:10:02.817Z,975.62
2017-08-02T08:11:03.526Z,975.62
2017-08-02T08:12:04.237Z,975.60
2017-08-02T08:13:04.949Z,975.64
2017-08-02T08:14:05.911Z,975.60
2017-08-02T08:15:06.617Z,975.57
2017-08-02T08:16:07.324Z,975.58
2017-08-02T08:17:08.035Z,975.54
2017-08-02T08:18:08.757Z,975.54
2017-08-02T08:19:09.771Z,975.53
2017-08-02T08:20:10.485Z,975.59
2017-08-02T08:21:11.196Z,975.56
2017-08-02T08:22:11.905Z,975.57
2017-08-02T08:23:12.615Z,975.57
2017-08-02T08:24:13.570Z,975.57
2017-08-02T08:25:14.280Z,975.56
2017-08-02T08:26:14.987Z,975.54
2017-08-02T08:27:15.698Z,975.54
2017-08-02T08:28:16.407Z,975.54
2017-08-02T08:29:17.361Z,975.56
2017-08-02T08:30:18.070Z,975.54
2017-08-02T08:31:18.780Z,975.55
2017-08-02T08:32:19.485Z,975.56
2017-08-02T08:33:20.200Z,975.52
2017-08-02T08:34:21.189Z,975.50
2017-08-02T08:35:21.900Z,975.48
2017-08-02T08:36:22.612Z,975.45
2017-08-02T08:37:23.324Z,975.45
2017-08-02T08:38:24.043Z,975.43
2017-08-02T08:39:25.003Z,975.46
2017-08-02T08:40:25.710Z,975.47
2017-08-02T08:41:26.429Z,975.48
2017-08-02T08:42:27.142Z,975.52
2017-08-02T08:43:27.848Z,975.58
2017-08-02T08:44:28.557Z,975.55
2017-08-02T08:45:29.272Z,975.62
2017-08-02T08:46:29.993Z,975.56
2017-08-02T08:47:30.703Z,975.57
2017-08-02T08:48:31.411Z,975.55
2017-08-02T08:49:32.116Z,975.54
2017-08-02T08:50:32.825Z,975.53
2017-08-02T08:51:33.533Z,975.55
2017-08-02T08:52:34.244Z,975.54
2017-08-02T08:53:34.954Z,975.59
2017-08-02T08:54:35.914Z,975.62
2017-08-02T08:55:36.626Z,975.63
2017-08-02T08:56:37.336Z,975.63
2017-08-02T08:57:38.042Z,975.62
2017-08-02T08:58:38.770Z,975.58
2017-08-02T08:59:39.775Z,975.64
2017-08-02T09:00:40.485Z,975.60
2017-08-02T09:01:41.192Z,975.66
2017-08-02T09:02:41.911Z,975.61
2017-08-02T09:03:42.621Z,975.65
2017-08-02T09:04:43.592Z,975.64
2017-08-02T09:05:44.306Z,975.62
2017-08-02T09:06:45.009Z,975.61
2017-08-02T09:07:45.725Z,975.59
2017-08-02T09:08:46.434Z,975.62
2017-08-02T09:09:47.452Z,975.57
2017-08-02T09:10:48.164Z,975.56
2017-08-02T09:11:48.875Z,975.55
2017-08-02T09:12:49.582Z,975.54
2017-08-02T09:13:50.286Z,975.55
2017-08-02T09:14:51.245Z,975.57
2017-08-02T09:15:51.965Z,975.54
2017-08-02T09:16:52.681Z,975.50
2017-08-02T09:17:53.397Z,975.48
2017-08-02T09:18:54.106Z,975.53
2017-08-02T09:19:55.067Z,975.51
2017-08-02T09:20:55.784Z,975.50
2017-08-02T09:21:56.505Z,975.44
2017-08-02T09:22:57.220Z,975.50
2017-08-02T09:23:57.928Z,975.46
2017-08-02T09:24:58.890Z,975.51
2017-08-02T09:25:59.597Z,975.53
2017-08-02T09:27:00.310Z,975.46
2017-08-02T09:28:01.014Z,975.49
2017-08-02T09:29:01.724Z,975.48
2017-08-02T09:30:02.707Z,975.47
2017-08-02T09:31:03.413Z,975.48
2017-08-02T09:32:04.120Z,975.48
2017-08-02T09:33:04.830Z,975.51
2017-08-02T09:34:05.540Z,975.50
2017-08-02T09:35:06.499Z,975.47
2017-08-02T09:36:07.138Z,975.54
2017-08-02T09:37:07.921Z,975.52
2017-08-02T09:38:08.627Z,975.49
2017-08-02T09:39:09.337Z,975.48
2017-08-02T09:40:10.350Z,975.52
2017-08-02T09:41:11.060Z,975.48
2017-08-02T09:42:11.768Z,975.49
2017-08-02T09:43:12.475Z,975.49
2017-08-02T09:44:13.186Z,975.48
2017-08-02T09:45:14.154Z,975.47
2017-08-02T09:46:14.868Z,975.48
2017-08-02T09:47:15.577Z,975.45
2017-08-02T09:48:16.296Z,975.52
2017-08-02T09:49:17.004Z,975.48
2017-08-02T09:50:17.965Z,975.49
2017-08-02T09:51:18.678Z,975.45
2017-08-02T09:52:19.388Z,975.45
2017-08-02T09:53:20.104Z,975.48
2017-08-02T09:54:20.812Z,975.47
2017-08-02T09:55:21.771Z,975.45
2017-08-02T09:56:22.492Z,975.43
2017-08-02T09:57:23.202Z,975.43
2017-08-02T09:58:23.916Z,975.43
2017-08-02T09:59:24.626Z,975.40
2017-08-02T10:00:25.588Z,975.41
2017-08-02T10:01:26.314Z,975.39
2017-08-02T10:02:27.027Z,975.39
2017-08-02T10:03:27.737Z,975.37
2017-08-02T10:04:28.451Z,975.41
2017-08-02T10:05:29.461Z,975.34
2017-08-02T10:06:30.174Z,975.38
2017-08-02T10:07:30.891Z,975.42
2017-08-02T10:08:31.602Z,975.37
2017-08-02T10:09:32.311Z,975.40
2017-08-02T10:10:33.274Z,975.37
2017-08-02T10:11:33.991Z,975.36
2017-08-02T10:12:34.700Z,975.35
2017-08-02T10:13:35.403Z,975.32
2017-08-02T10:14:36.121Z,975.32
2017-08-02T10:15:36.833Z,975.34
2017-08-02T10:16:37.545Z,975.30
2017-08-02T10:17:38.256Z,975.28
2017-08-02T10:18:38.973Z,975.30
2017-08-02T10:19:39.688Z,975.28
2017-08-02T10:20:40.658Z,975.30
2017-08-02T10:21:41.369Z,975.30
2017-08-02T10:22:42.079Z,975.24
2017-08-02T10:23:42.789Z,975.19
2017-08-02T10:24:43.501Z,975.23
2017-08-02T10:25:44.464Z,975.20
2017-08-02T10:26:45.179Z,975.17
2017-08-02T10:27:45.896Z,975.18
2017-08-02T10:28:46.602Z,975.14
2017-08-02T10:29:47.306Z,975.15
2017-08-02T10:30:48.274Z,975.11
2017-08-02T10:31:48.985Z,975.11
2017-08-02T10:32:49.690Z,975.12
2017-08-02T10:33:50.398Z,975.10
2017-08-02T10:34:51.115Z,975.13
2017-08-02T10:35:52.081Z,975.14
2017-08-02T10:36:52.787Z,975.12
2017-08-02T10:37:53.494Z,975.11
2017-08-02T10:38:54.207Z,975.09
2017-08-02T10:39:54.920Z,975.07
2017-08-02T10:40:55.880Z,975.07
2017-08-02T10:41:56.589Z,975.04
2017-08-02T10:42:57.298Z,974.96
2017-08-02T10:43:58.009Z,975.06
2017-08-02T10:44:58.719Z,975.04
2017-08-02T10:45:59.678Z,975.06
2017-08-02T10:47:00.392Z,975.04
2017-08-02T10:48:01.102Z,975.02
2017-08-02T10:49:01.814Z,975.03
2017-08-02T10:50:02.526Z,974.98
2017-08-02T10:51:03.488Z,974.96
2017-08-02T10:52:04.199Z,974.96
2017-08-02T10:53:04.924Z,974.97
2017-08-02T10:54:05.649Z,974.95
2017-08-02T10:55:06.363Z,974.93
2017-08-02T10:56:07.324Z,974.91
2017-08-02T10:57:08.034Z,974.93
2017-08-02T10:58:08.745Z,974.93
2017-08-02T10:59:09.456Z,974.96
2017-08-02T11:00:10.165Z,974.94
2017-08-02T11:01:11.127Z,974.92
2017-08-02T11:02:11.844Z,974.85
2017-08-02T11:03:12.555Z,974.87
2017-08-02T11:04:13.269Z,974.82
2017-08-02T11:05:13.984Z,974.87
2017-08-02T11:06:15.003Z,974.83
2017-08-02T11:07:15.723Z,974.85
2017-08-02T11:08:16.436Z,974.82
2017-08-02T11:09:17.147Z,974.80
2017-08-02T11:10:17.850Z,974.83
2017-08-02T11:11:18.812Z,974.86
2017-08-02T11:12:19.536Z,974.83
2017-08-02T11:13:20.251Z,974.88
2017-08-02T11:14:20.957Z,974.88
2017-08-02T11:15:21.678Z,974.81
2017-08-02T11:16:22.639Z,974.84
2017-08-02T11:17:23.352Z,974.79
2017-08-02T11:18:24.064Z,974.82
2017-08-02T11:19:24.776Z,974.79
2017-08-02T11:20:25.490Z,974.79
2017-08-02T11:21:26.512Z,974.80
2017-08-02T11:22:27.220Z,974.75
2017-08-02T11:23:27.938Z,974.72
2017-08-02T11:24:28.657Z,974.70
2017-08-02T11:25:29.367Z,974.74
2017-08-02T11:26:30.327Z,974.74
2017-08-02T11:27:31.049Z,974.76
2017-08-02T11:28:31.763Z,974.77
2017-08-02T11:29:32.475Z,974.76
2017-08-02T11:30:33.191Z,974.73
2017-08-02T11:31:34.153Z,974.74
2017-08-02T11:32:34.876Z,974.82
2017-08-02T11:33:35.587Z,974.81
2017-08-02T11:34:36.300Z,974.79
2017-08-02T11:35:37.011Z,974.80
2017-08-02T11:36:38.027Z,974.82
2017-08-02T11:37:38.744Z,974.87
2017-08-02T11:38:39.457Z,974.84
2017-08-02T11:39:40.171Z,974.78
2017-08-02T11:40:40.887Z,974.78
2017-08-02T11:41:41.597Z,974.79
2017-08-02T11:42:42.305Z,974.84
2017-08-02T11:43:43.020Z,974.77
2017-08-02T11:44:43.740Z,974.82
2017-08-02T11:45:44.454Z,974.80
2017-08-02T11:46:45.421Z,974.82
2017-08-02T11:47:46.136Z,974.82
2017-08-02T11:48:46.850Z,974.80
2017-08-02T11:49:47.564Z,974.80
2017-08-02T11:50:48.281Z,974.79
2017-08-02T11:51:49.243Z,974.80
2017-08-02T11:52:49.952Z,974.72
2017-08-02T11:53:50.662Z,974.75
2017-08-02T11:54:51.368Z,974.72
2017-08-02T11:55:52.091Z,974.79
2017-08-02T11:56:53.058Z,974.71
2017-08-02T11:57:53.771Z,974.67
2017-08-02T11:58:54.483Z,974.68
2017-08-02T11:59:55.198Z,974.73
2017-08-02T12:00:55.916Z,974.69
2017-08-02T12:01:56.878Z,974.65
2017-08-02T12:02:57.595Z,974.62
2017-08-02T12:03:58.314Z,974.65
2017-08-02T12:04:59.032Z,974.66
2017-08-02T12:05:59.740Z,974.59
2017-08-02T12:07:00.710Z,974.59
2017-08-02T12:08:01.431Z,974.56
2017-08-02T12:09:02.154Z,974.57
2017-08-02T12:10:02.881Z,974.55
2017-08-02T12:11:03.593Z,974.53
2017-08-02T12:12:04.564Z,974.59
2017-08-02T12:13:05.281Z,974.58
2017-08-02T12:14:05.996Z,974.58
2017-08-02T12:15:06.710Z,974.55
2017-08-02T12:16:07.422Z,974.59
2017-08-02T12:17:08.447Z,974.55
2017-08-02T12:18:09.165Z,974.53
2017-08-02T12:19:09.877Z,974.56
2017-08-02T12:20:10.589Z,974.47
2017-08-02T12:21:11.301Z,974.46
2017-08-02T12:22:12.262Z,974.44
2017-08-02T12:23:12.974Z,974.46
2017-08-02T12:24:13.691Z,974.52
2017-08-02T12:25:14.403Z,974.48
2017-08-02T12:26:15.115Z,974.45
2017-08-02T12:27:16.084Z,974.44
2017-08-02T12:28:16.799Z,974.48
2017-08-02T12:29:17.515Z,974.56
2017-08-02T12:30:18.232Z,974.44
2017-08-02T12:31:18.952Z,974.38
2017-08-02T12:32:19.928Z,974.44
2017-08-02T12:33:20.640Z,974.36
2017-08-02T12:34:21.355Z,974.37
2017-08-02T12:35:22.068Z,974.35
2017-08-02T12:36:22.786Z,974.21
2017-08-02T12:37:23.763Z,974.26
2017-08-02T12:38:24.478Z,974.25